This is the latest recevied weather packets stored in our database for station/object SP6PGH-13. If no packets are shown the sender has not sent any weather packets the latest 10 day(s).
| Time | Temp. | Humidity | Pressure | Rain* | Wind** | Luminosity | Snow |
|---|---|---|---|---|---|---|---|
| 1777433077 | 2.22° C | 64% | 1012.1 hPa | - | - | 2 W/m² | - |
| 1777432176 | 2.22° C | 64% | 1012 hPa | - | - | - | - |
| 1777431275 | 2.22° C | 66% | 1011.9 hPa | - | - | - | - |
| 1777430374 | 2.22° C | 66% | 1011.8 hPa | - | - | - | - |
| 1777429474 | 2.78° C | 65% | 1011.6 hPa | - | - | - | - |
| 1777428572 | 3.33° C | 64% | 1011.6 hPa | - | - | - | - |
| 1777427671 | 3.33° C | 65% | 1011.7 hPa | - | - | - | - |
| 1777426770 | 3.33° C | 64% | 1011.7 hPa | - | - | - | - |
| 1777425869 | 3.33° C | 63% | 1011.5 hPa | - | - | - | - |
| 1777424968 | 3.89° C | 62% | 1011.4 hPa | - | - | - | - |
| 1777424067 | 3.89° C | 61% | 1011.3 hPa | - | - | - | - |
| 1777423166 | 3.89° C | 60% | 1011.2 hPa | - | - | - | - |
| 1777422265 | 3.89° C | 61% | 1011.2 hPa | - | - | - | - |
| 1777421363 | 3.33° C | 62% | 1011.1 hPa | - | - | - | - |
| 1777420463 | 3.89° C | 60% | 1010.9 hPa | - | - | - | - |
| 1777419561 | 2.78° C | 61% | 1011 hPa | - | - | - | - |
| 1777418660 | 2.22° C | 64% | 1010.9 hPa | - | - | - | - |
| 1777417759 | 0.56° C | 69% | 1010.9 hPa | - | - | - | - |
| 1777416858 | 0.56° C | 77% | 1010.7 hPa | - | - | - | - |
| 1777415957 | 1.11° C | 71% | 1010.6 hPa | - | - | - | - |
| 1777415056 | 1.11° C | 69% | 1010.7 hPa | - | - | - | - |
| 1777414155 | 1.67° C | 70% | 1010.7 hPa | - | - | - | - |
| 1777413254 | 1.67° C | 73% | 1010.6 hPa | - | - | - | - |
| 1777412353 | 2.22° C | 66% | 1010.6 hPa | - | - | - | - |
| 1777411453 | 2.78° C | 63% | 1010.5 hPa | - | - | - | - |
* Rain since midnight (hover to see other rain measurements)
** Current wind speed in m/s (hover to see current wind gust speed)